createdAt,value
2023-01-26T00:01:25.587Z,100631.47
2023-01-26T00:05:27.496Z,100637.69
2023-01-26T00:09:29.424Z,100626.97
2023-01-26T00:13:31.478Z,100625.81
2023-01-26T00:17:33.363Z,100622.03
2023-01-26T00:21:35.356Z,100626.56
2023-01-26T00:25:40.359Z,100616.91
2023-01-26T00:29:42.195Z,100616.22
2023-01-26T00:33:44.025Z,100612.88
2023-01-26T00:37:45.935Z,100618.88
2023-01-26T00:42:06.079Z,100611.13
2023-01-26T00:46:08.002Z,100600.38
2023-01-26T00:50:11.410Z,100596.69
2023-01-26T00:54:13.635Z,100605.63
2023-01-26T00:58:15.661Z,100608.81
2023-01-26T01:02:17.671Z,100601.31
2023-01-26T01:06:19.707Z,100601.72
2023-01-26T01:10:37.997Z,100593.38
2023-01-26T01:14:54.648Z,100597.78
2023-01-26T01:18:56.617Z,100592.06
2023-01-26T01:23:04.524Z,100601.22
2023-01-26T01:27:18.950Z,100599.22
2023-01-26T01:31:20.961Z,100595.56
2023-01-26T01:35:34.576Z,100588.22
2023-01-26T01:39:38.798Z,100593.38
2023-01-26T01:43:45.384Z,100585.03
2023-01-26T01:47:49.807Z,100573.28
2023-01-26T01:52:26.252Z,100570.06
2023-01-26T01:56:28.315Z,100561.66
2023-01-26T02:00:30.406Z,100555.44
2023-01-26T02:04:32.326Z,100543.88
2023-01-26T02:08:46.760Z,100539.13
2023-01-26T02:12:56.762Z,100556.13
2023-01-26T02:16:58.584Z,100548.50
2023-01-26T02:21:09.607Z,100536.06
2023-01-26T02:25:23.605Z,100533.38
2023-01-26T02:29:25.441Z,100523.16
2023-01-26T02:33:28.866Z,100520.19
2023-01-26T02:37:30.714Z,100495.94
2023-01-26T02:41:55.783Z,100500.31
2023-01-26T02:45:57.846Z,100496.88
2023-01-26T02:50:00.686Z,100480.53
2023-01-26T02:54:02.481Z,100476.72
2023-01-26T02:58:04.989Z,100483.25
2023-01-26T03:02:07.157Z,100491.84
2023-01-26T03:06:11.123Z,100484.75
2023-01-26T03:10:13.514Z,100483.19
2023-01-26T03:14:16.064Z,100491.47
2023-01-26T03:18:37.223Z,100481.16
2023-01-26T03:23:13.847Z,100483.91
2023-01-26T03:27:27.509Z,100480.69
2023-01-26T03:31:29.400Z,100472.63
2023-01-26T03:35:32.612Z,100478.31
2023-01-26T03:39:53.217Z,100468.72
2023-01-26T03:44:13.614Z,100479.59
2023-01-26T03:48:34.226Z,100461.63
2023-01-26T03:53:18.895Z,100472.44
2023-01-26T03:57:20.823Z,100458.94
2023-01-26T04:01:28.294Z,100460.91
2023-01-26T04:06:15.552Z,100449.03
2023-01-26T04:10:18.442Z,100442.13
2023-01-26T04:14:50.514Z,100437.69
2023-01-26T04:19:11.291Z,100447.31
2023-01-26T04:23:20.057Z,100447.38
2023-01-26T04:27:22.070Z,100436.75
2023-01-26T04:31:24.041Z,100431.84
2023-01-26T04:35:25.886Z,100444.28
2023-01-26T04:39:27.933Z,100423.69
2023-01-26T04:43:29.755Z,100432.28
2023-01-26T04:47:31.775Z,100428.53
2023-01-26T04:51:33.740Z,100420.00
2023-01-26T04:55:35.507Z,100425.34
2023-01-26T04:59:37.514Z,100414.22
2023-01-26T05:03:39.471Z,100426.69
2023-01-26T05:07:41.398Z,100418.72
2023-01-26T05:11:43.296Z,100414.66
2023-01-26T05:15:45.152Z,100423.97
2023-01-26T05:19:47.074Z,100430.69
2023-01-26T05:23:48.892Z,100425.53
2023-01-26T05:27:53.956Z,100429.19
2023-01-26T05:31:55.844Z,100438.19
2023-01-26T05:35:58.790Z,100435.28
2023-01-26T05:40:00.770Z,100431.28
2023-01-26T05:44:02.794Z,100442.75
2023-01-26T05:48:07.307Z,100427.38
2023-01-26T05:52:10.920Z,100427.72
2023-01-26T05:56:12.852Z,100424.09
2023-01-26T06:00:17.103Z,100429.13
2023-01-26T06:04:19.177Z,100435.69
2023-01-26T06:08:21.340Z,100432.53
2023-01-26T06:12:23.408Z,100426.53
2023-01-26T06:16:25.432Z,100435.03
2023-01-26T06:20:28.487Z,100436.94
2023-01-26T06:24:32.589Z,100440.19
2023-01-26T06:28:37.164Z,100442.34
2023-01-26T06:32:42.283Z,100445.69
2023-01-26T06:36:50.976Z,100438.34
2023-01-26T06:41:15.754Z,100437.53
2023-01-26T06:45:24.902Z,100447.41
2023-01-26T06:49:28.775Z,100447.84
2023-01-26T06:53:43.358Z,100436.44
2023-01-26T06:57:45.461Z,100427.44
2023-01-26T07:01:48.756Z,100426.28
2023-01-26T07:05:53.403Z,100435.59
2023-01-26T07:09:55.330Z,100428.06
2023-01-26T07:13:57.233Z,100422.16
2023-01-26T07:17:59.536Z,100436.06
2023-01-26T07:22:01.956Z,100440.50
2023-01-26T07:26:04.476Z,100433.81
2023-01-26T07:30:10.596Z,100431.53
2023-01-26T07:34:12.778Z,100432.34
2023-01-26T07:38:14.720Z,100434.69
2023-01-26T07:42:16.695Z,100436.34
2023-01-26T07:46:18.639Z,100436.44
2023-01-26T07:50:21.737Z,100444.16
2023-01-26T07:54:23.643Z,100426.09
2023-01-26T07:58:25.434Z,100441.97
2023-01-26T08:02:27.300Z,100431.06
2023-01-26T08:06:29.366Z,100438.94
2023-01-26T08:10:34.197Z,100438.84
2023-01-26T08:14:46.422Z,100431.00
2023-01-26T08:18:49.025Z,100444.59
2023-01-26T08:22:50.921Z,100434.94
2023-01-26T08:26:55.229Z,100434.44
2023-01-26T08:30:57.359Z,100428.25
2023-01-26T08:34:59.578Z,100427.56
2023-01-26T08:39:02.773Z,100423.94
2023-01-26T08:43:04.858Z,100417.69
2023-01-26T08:47:06.839Z,100419.44
2023-01-26T08:51:08.982Z,100412.59
2023-01-26T08:55:10.953Z,100420.53
2023-01-26T08:59:12.814Z,100411.19
2023-01-26T09:03:15.020Z,100419.25
2023-01-26T09:07:17.963Z,100435.03
2023-01-26T09:11:19.735Z,100437.41
2023-01-26T09:15:21.680Z,100431.94
2023-01-26T09:19:25.757Z,100434.25
2023-01-26T09:23:27.625Z,100439.19
2023-01-26T09:27:29.428Z,100435.34
2023-01-26T09:31:31.428Z,100448.97
2023-01-26T09:35:35.139Z,100456.53
2023-01-26T09:39:37.056Z,100467.06
2023-01-26T09:43:49.959Z,100448.31
2023-01-26T09:48:31.740Z,100458.06
2023-01-26T09:52:36.872Z,100449.84
2023-01-26T09:56:38.841Z,100459.16
2023-01-26T10:00:49.953Z,100459.16
2023-01-26T10:04:53.608Z,100454.50
2023-01-26T10:08:56.504Z,100447.34
2023-01-26T10:12:58.452Z,100454.16
2023-01-26T10:17:00.724Z,100450.41
2023-01-26T10:21:04.148Z,100454.66
2023-01-26T10:25:30.046Z,100447.94
2023-01-26T10:29:31.852Z,100448.63
2023-01-26T10:33:37.611Z,100447.81
2023-01-26T10:37:39.590Z,100443.69
2023-01-26T10:41:43.023Z,100436.84
2023-01-26T10:45:48.683Z,100423.94
2023-01-26T10:49:50.450Z,100430.56
2023-01-26T10:54:21.058Z,100431.69
2023-01-26T10:58:42.921Z,100428.41
2023-01-26T11:02:54.012Z,100416.53
2023-01-26T11:07:11.792Z,100416.47
2023-01-26T11:11:28.242Z,100404.78
2023-01-26T11:15:45.302Z,100419.38
2023-01-26T11:20:17.723Z,100425.44
2023-01-26T11:25:09.165Z,100419.38
2023-01-26T11:29:31.053Z,100422.31
2023-01-26T11:33:48.841Z,100396.59
2023-01-26T11:38:40.828Z,100408.66
2023-01-26T11:43:01.595Z,100396.91
2023-01-26T11:47:16.089Z,100390.78
2023-01-26T11:51:29.919Z,100375.84
2023-01-26T11:56:07.258Z,100376.69
2023-01-26T12:00:30.207Z,100380.38
2023-01-26T12:04:37.708Z,100376.88
2023-01-26T12:08:47.826Z,100377.84
2023-01-26T12:13:27.847Z,100363.06
2023-01-26T12:18:18.751Z,100352.94
2023-01-26T12:22:43.263Z,100342.50
2023-01-26T12:26:48.309Z,100345.19
2023-01-26T12:31:27.908Z,100347.00
2023-01-26T12:36:17.235Z,100351.72
2023-01-26T12:40:51.411Z,100343.72
2023-01-26T12:45:03.220Z,100347.03
2023-01-26T12:49:21.536Z,100342.34
2023-01-26T12:53:34.989Z,100324.44
2023-01-26T12:58:03.032Z,100324.72
2023-01-26T13:02:30.590Z,100323.91
2023-01-26T13:06:32.779Z,100319.47
2023-01-26T13:10:47.025Z,100322.34
2023-01-26T13:15:10.422Z,100324.19
2023-01-26T13:19:44.588Z,100314.03
2023-01-26T13:23:52.715Z,100327.88
2023-01-26T13:28:04.328Z,100326.72
2023-01-26T13:32:26.322Z,100324.84
2023-01-26T13:36:30.752Z,100314.19
2023-01-26T13:40:38.009Z,100310.75
2023-01-26T13:44:45.475Z,100322.84
2023-01-26T13:48:52.366Z,100328.31
2023-01-26T13:52:54.281Z,100325.22
2023-01-26T13:57:06.938Z,100318.06
2023-01-26T14:01:12.808Z,100328.69
2023-01-26T14:05:22.633Z,100331.19
2023-01-26T14:09:27.759Z,100330.69
2023-01-26T14:13:38.747Z,100329.34
2023-01-26T14:18:01.427Z,100316.09
2023-01-26T14:22:05.292Z,100311.91
2023-01-26T14:26:29.521Z,100320.50
2023-01-26T14:30:34.132Z,100321.19
2023-01-26T14:34:35.993Z,100320.19
2023-01-26T14:38:48.874Z,100320.50
2023-01-26T14:42:52.533Z,100320.91
2023-01-26T14:47:26.559Z,100322.19
2023-01-26T14:51:28.511Z,100312.38
2023-01-26T14:55:39.574Z,100319.56
2023-01-26T14:59:41.372Z,100329.50
2023-01-26T15:03:43.276Z,100334.38
2023-01-26T15:08:02.337Z,100322.53
2023-01-26T15:12:16.834Z,100332.88
2023-01-26T15:16:23.098Z,100333.03
2023-01-26T15:20:24.923Z,100339.69
2023-01-26T15:24:26.894Z,100330.38
2023-01-26T15:28:28.757Z,100339.34
2023-01-26T15:32:44.534Z,100340.84
2023-01-26T15:36:50.589Z,100359.13
2023-01-26T15:40:52.501Z,100348.75
2023-01-26T15:44:54.768Z,100344.25
2023-01-26T15:48:57.045Z,100344.97
2023-01-26T15:52:59.171Z,100348.84
2023-01-26T15:57:03.238Z,100344.19
2023-01-26T16:01:06.384Z,100350.06
2023-01-26T16:05:20.633Z,100354.16
2023-01-26T16:09:22.707Z,100357.66
2023-01-26T16:13:27.430Z,100360.13
2023-01-26T16:17:29.667Z,100353.91
2023-01-26T16:21:45.743Z,100361.97
2023-01-26T16:25:47.862Z,100368.38
2023-01-26T16:29:49.885Z,100361.50
2023-01-26T16:33:52.068Z,100347.28
2023-01-26T16:37:59.736Z,100355.88
2023-01-26T16:42:06.598Z,100353.09
2023-01-26T16:46:14.172Z,100370.91
2023-01-26T16:50:16.487Z,100370.81
2023-01-26T16:54:18.459Z,100371.56
2023-01-26T16:58:24.047Z,100366.84
2023-01-26T17:02:28.208Z,100356.31
2023-01-26T17:06:32.032Z,100371.97
2023-01-26T17:10:34.008Z,100362.91
2023-01-26T17:14:39.151Z,100380.53
2023-01-26T17:18:41.775Z,100374.03
2023-01-26T17:22:43.704Z,100377.78
2023-01-26T17:26:45.670Z,100374.72
2023-01-26T17:31:23.273Z,100392.34
2023-01-26T17:35:25.354Z,100379.66
2023-01-26T17:39:30.505Z,100391.16
2023-01-26T17:43:32.632Z,100393.75
2023-01-26T17:47:34.748Z,100392.34
2023-01-26T17:51:36.519Z,100403.44
2023-01-26T17:55:38.618Z,100383.28
2023-01-26T17:59:42.726Z,100392.94
2023-01-26T18:03:44.937Z,100383.88
2023-01-26T18:07:51.522Z,100389.72
2023-01-26T18:11:53.816Z,100409.91
2023-01-26T18:15:59.873Z,100401.22
2023-01-26T18:20:07.604Z,100394.44
2023-01-26T18:24:13.428Z,100402.19
2023-01-26T18:28:28.802Z,100394.56
2023-01-26T18:32:30.965Z,100397.94
2023-01-26T18:36:33.812Z,100403.69
2023-01-26T18:40:58.468Z,100406.63
2023-01-26T18:45:03.546Z,100406.91
2023-01-26T18:49:22.980Z,100416.59
2023-01-26T18:53:50.552Z,100416.44
2023-01-26T18:58:12.343Z,100414.47
2023-01-26T19:02:47.036Z,100415.25
2023-01-26T19:07:01.749Z,100417.38
2023-01-26T19:11:05.797Z,100417.66
2023-01-26T19:15:09.459Z,100415.44
2023-01-26T19:19:11.914Z,100403.88
2023-01-26T19:23:13.929Z,100405.31
2023-01-26T19:27:23.675Z,100403.50
2023-01-26T19:31:28.946Z,100396.91
2023-01-26T19:35:32.082Z,100393.72
2023-01-26T19:39:36.814Z,100398.69
2023-01-26T19:43:38.945Z,100403.59
2023-01-26T19:47:41.775Z,100407.31
2023-01-26T19:51:43.692Z,100406.16
2023-01-26T19:55:45.659Z,100410.78
2023-01-26T19:59:47.563Z,100400.88
2023-01-26T20:04:12.651Z,100407.72
2023-01-26T20:08:14.660Z,100402.16
2023-01-26T20:12:27.312Z,100406.00
2023-01-26T20:21:00.673Z,100397.72
2023-01-26T20:25:02.875Z,100409.13
2023-01-26T20:29:08.763Z,100395.31
2023-01-26T20:33:15.969Z,100382.88
2023-01-26T20:37:21.663Z,100378.50
2023-01-26T20:41:27.768Z,100370.88
2023-01-26T20:45:29.852Z,100375.34
2023-01-26T20:49:31.817Z,100377.91
2023-01-26T20:53:34.086Z,100387.81
2023-01-26T20:57:36.377Z,100382.94
2023-01-26T21:01:44.185Z,100390.34
2023-01-26T21:05:46.317Z,100388.69
2023-01-26T21:09:48.298Z,100391.59
2023-01-26T21:13:52.685Z,100386.47
2023-01-26T21:17:59.709Z,100402.44
2023-01-26T21:26:59.539Z,100398.34
2023-01-26T21:31:09.495Z,100404.47
2023-01-26T21:35:13.762Z,100401.69
2023-01-26T21:39:15.762Z,100387.34
2023-01-26T21:43:17.771Z,100401.59
2023-01-26T21:47:19.793Z,100395.78
2023-01-26T21:51:54.114Z,100404.81
2023-01-26T21:55:55.911Z,100413.59
2023-01-26T21:59:57.725Z,100409.50
2023-01-26T22:04:01.693Z,100405.56
2023-01-26T22:08:03.613Z,100411.94
2023-01-26T22:12:05.962Z,100399.69
2023-01-26T22:16:08.275Z,100398.53
2023-01-26T22:20:11.790Z,100406.63
2023-01-26T22:24:14.720Z,100397.13
2023-01-26T22:28:16.666Z,100410.53
2023-01-26T22:32:18.588Z,100388.66
2023-01-26T22:36:21.388Z,100384.16
2023-01-26T22:40:23.347Z,100385.31
2023-01-26T22:44:25.242Z,100378.84
2023-01-26T22:48:27.345Z,100368.75
2023-01-26T22:52:29.657Z,100372.34
2023-01-26T22:56:31.663Z,100386.50
2023-01-26T23:00:33.995Z,100376.91
2023-01-26T23:04:35.846Z,100393.81
2023-01-26T23:08:37.823Z,100383.03
2023-01-26T23:12:41.832Z,100399.75
2023-01-26T23:16:43.865Z,100394.75
2023-01-26T23:20:45.888Z,100405.19
2023-01-26T23:25:07.664Z,100393.41
2023-01-26T23:29:09.598Z,100396.88
2023-01-26T23:33:11.463Z,100404.34
2023-01-26T23:37:13.410Z,100397.78
2023-01-26T23:41:17.879Z,100389.22
2023-01-26T23:45:19.698Z,100397.06
2023-01-26T23:49:21.654Z,100388.06
2023-01-26T23:53:24.124Z,100391.19
2023-01-26T23:57:26.393Z,100388.84
